Almond, North Carolina
Current Conditions -  °F | °C
As of 12:55 AM on Friday 31 Oct 2014 (Local Time) from KRHP Reporting Station
Clear Clear  
Wind Chill: 36°   Ceiling: Unl
Heat Index: 36°   Visibility: 10mi
Dew Point: 35°   Wind: 0mph
Humidity: 99%   Direction: NA
Pressure: 30"   Gusts: NA
Location:  35.37°N, 83.57°W
Report Text: KRHP 310455Z AUTO 00000KT 10SM CLR 02/02 A3000 RMK AO2 T00200019
Loading
Personal Weather Stations






























Interactive Weather Map
Tropical Storm Tracking
New forecast layout! Learn more

10-Day Weather Forecast

Advertisements
Track Severe Weather on mobile